createdAt,value
2019-03-05T00:00:28.440Z,98513.45
2019-03-05T00:03:00.468Z,98512.29
2019-03-05T00:05:29.498Z,98522.70
2019-03-05T00:07:58.074Z,98501.45
2019-03-05T00:10:26.633Z,98514.14
2019-03-05T00:12:55.015Z,98516.59
2019-03-05T00:15:30.413Z,98513.41
2019-03-05T00:17:59.563Z,98523.19
2019-03-05T00:20:31.620Z,98520.81
2019-03-05T00:23:00.502Z,98525.55
2019-03-05T00:25:40.960Z,98523.11
2019-03-05T00:28:33.722Z,98524.29
2019-03-05T00:31:13.940Z,98530.28
2019-03-05T00:33:58.588Z,98528.91
2019-03-05T00:36:30.278Z,98550.16
2019-03-05T00:39:07.409Z,98532.37
2019-03-05T00:41:53.785Z,98529.66
2019-03-05T00:44:28.235Z,98528.16
2019-03-05T00:47:19.475Z,98529.84
2019-03-05T00:49:51.457Z,98529.53
2019-03-05T00:52:40.316Z,98538.97
2019-03-05T00:55:39.165Z,98540.27
2019-03-05T00:58:21.512Z,98537.66
2019-03-05T01:01:06.010Z,98539.05
2019-03-05T01:03:54.476Z,98541.57
2019-03-05T01:06:25.855Z,98543.27
2019-03-05T01:08:57.293Z,98554.50
2019-03-05T01:11:26.457Z,98550.52
2019-03-05T01:13:56.764Z,98553.99
2019-03-05T01:16:33.184Z,98549.02
2019-03-05T01:19:01.600Z,98556.31
2019-03-05T01:21:30.083Z,98549.38
2019-03-05T01:23:58.541Z,98544.56
2019-03-05T01:26:27.143Z,98539.98
2019-03-05T01:28:55.771Z,98554.14
2019-03-05T01:31:31.644Z,98551.45
2019-03-05T01:34:05.498Z,98548.77
2019-03-05T01:36:41.914Z,98550.47
2019-03-05T01:39:21.390Z,98550.31
2019-03-05T01:41:49.782Z,98549.63
2019-03-05T01:44:18.533Z,98549.34
2019-03-05T01:46:47.323Z,98555.38
2019-03-05T01:49:16.018Z,98556.30
2019-03-05T01:51:44.429Z,98562.13
2019-03-05T01:54:13.405Z,98565.01
2019-03-05T01:56:41.959Z,98560.72
2019-03-05T01:59:12.068Z,98558.80
2019-03-05T02:01:40.623Z,98558.42
2019-03-05T02:04:09.095Z,98555.20
2019-03-05T02:06:37.567Z,98561.86
2019-03-05T02:09:08.081Z,98550.78
2019-03-05T02:11:36.872Z,98548.34
2019-03-05T02:14:05.396Z,98551.53
2019-03-05T02:16:33.890Z,98551.22
2019-03-05T02:19:27.903Z,98548.98
2019-03-05T02:21:56.841Z,98549.89
2019-03-05T02:24:45.058Z,98559.34
2019-03-05T02:27:42.587Z,98552.41
2019-03-05T02:30:40.388Z,98546.25
2019-03-05T02:33:45.365Z,98555.05
2019-03-05T02:36:44.056Z,98547.44
2019-03-05T02:39:38.502Z,98552.84
2019-03-05T02:42:24.913Z,98548.86
2019-03-05T02:45:02.733Z,98546.02
2019-03-05T02:47:43.314Z,98542.83
2019-03-05T02:50:40.737Z,98539.91
2019-03-05T02:53:15.546Z,98543.81
2019-03-05T02:55:52.995Z,98539.75
2019-03-05T02:58:21.071Z,98544.56
2019-03-05T03:01:00.104Z,98535.22
2019-03-05T03:03:30.626Z,98538.05
2019-03-05T03:06:01.677Z,98529.11
2019-03-05T03:08:30.119Z,98543.70
2019-03-05T03:10:58.557Z,98538.45
2019-03-05T03:13:27.007Z,98545.91
2019-03-05T03:15:55.360Z,98531.08
2019-03-05T03:18:23.775Z,98538.69
2019-03-05T03:20:52.240Z,98538.09
2019-03-05T03:23:20.578Z,98543.58
2019-03-05T03:25:49.031Z,98547.59
2019-03-05T03:28:17.447Z,98545.87
2019-03-05T03:30:45.832Z,98547.13
2019-03-05T03:33:14.272Z,98538.95
2019-03-05T03:35:42.633Z,98547.59
2019-03-05T03:38:11.095Z,98540.34
2019-03-05T03:40:39.698Z,98550.20
2019-03-05T03:43:08.199Z,98551.63
2019-03-05T03:45:36.638Z,98551.19
2019-03-05T03:48:05.139Z,98557.50
2019-03-05T03:50:33.508Z,98547.64
2019-03-05T03:53:01.924Z,98551.10
2019-03-05T03:55:30.375Z,98556.08
2019-03-05T03:57:58.794Z,98560.37
2019-03-05T04:00:27.323Z,98546.34
2019-03-05T04:02:55.719Z,98565.66
2019-03-05T04:05:24.306Z,98555.09
2019-03-05T04:07:52.717Z,98552.91
2019-03-05T04:10:21.265Z,98552.44
2019-03-05T04:12:49.663Z,98550.30
2019-03-05T04:15:19.098Z,98549.17
2019-03-05T04:17:47.610Z,98549.53
2019-03-05T04:20:18.663Z,98551.14
2019-03-05T04:22:48.317Z,98563.25
2019-03-05T04:25:16.692Z,98564.62
2019-03-05T04:27:45.114Z,98560.02
2019-03-05T04:30:14.734Z,98558.12
2019-03-05T04:32:43.067Z,98562.81
2019-03-05T04:35:12.795Z,98558.99
2019-03-05T04:37:41.140Z,98560.73
2019-03-05T04:40:11.488Z,98561.13
2019-03-05T04:42:39.947Z,98561.76
2019-03-05T04:45:49.573Z,98565.78
2019-03-05T04:48:18.055Z,98555.53
2019-03-05T04:50:59.737Z,98569.17
2019-03-05T04:53:28.163Z,98570.52
2019-03-05T04:55:56.554Z,98563.97
2019-03-05T04:58:24.970Z,98567.52
2019-03-05T05:00:53.497Z,98562.39
2019-03-05T05:03:21.923Z,98562.31
2019-03-05T05:05:50.284Z,98567.75
2019-03-05T05:08:18.663Z,98565.52
2019-03-05T05:10:47.103Z,98568.66
2019-03-05T05:13:15.554Z,98554.14
2019-03-05T05:15:44.040Z,98555.17
2019-03-05T05:18:12.423Z,98556.32
2019-03-05T05:20:40.861Z,98565.83
2019-03-05T05:23:09.321Z,98565.35
2019-03-05T05:25:37.735Z,98562.34
2019-03-05T05:28:06.114Z,98561.13
2019-03-05T05:30:38.942Z,98559.19
2019-03-05T05:33:08.360Z,98558.02
2019-03-05T05:35:36.841Z,98556.91
2019-03-05T05:38:05.657Z,98551.38
2019-03-05T05:40:42.313Z,98541.52
2019-03-05T05:43:28.740Z,98538.95
2019-03-05T05:45:57.157Z,98541.44
2019-03-05T05:48:25.621Z,98545.03
2019-03-05T05:50:54.031Z,98545.42
2019-03-05T05:53:22.481Z,98558.79
2019-03-05T05:55:50.911Z,98551.63
2019-03-05T05:58:19.373Z,98564.23
2019-03-05T06:00:49.531Z,98565.70
2019-03-05T06:03:18.059Z,98564.36
2019-03-05T06:05:46.485Z,98571.58
2019-03-05T06:08:14.936Z,98555.81
2019-03-05T06:10:43.410Z,98570.98
2019-03-05T06:13:11.843Z,98570.72
2019-03-05T06:15:40.250Z,98578.84
2019-03-05T06:18:08.711Z,98555.69
2019-03-05T06:20:37.120Z,98561.20
2019-03-05T06:23:05.584Z,98562.83
2019-03-05T06:25:34.064Z,98562.67
2019-03-05T06:28:02.589Z,98545.03
2019-03-05T06:30:36.683Z,98550.36
2019-03-05T06:33:05.127Z,98557.62
2019-03-05T06:35:33.554Z,98565.59
2019-03-05T06:38:01.940Z,98567.91
2019-03-05T06:40:32.195Z,98561.59
2019-03-05T06:43:00.643Z,98563.65
2019-03-05T06:45:29.059Z,98565.66
2019-03-05T06:47:57.529Z,98561.45
2019-03-05T06:50:27.301Z,98557.22
2019-03-05T06:52:55.841Z,98556.00
2019-03-05T06:55:24.239Z,98554.90
2019-03-05T06:57:52.629Z,98553.52
2019-03-05T07:00:40.972Z,98558.41
2019-03-05T07:03:10.201Z,98569.93
2019-03-05T07:06:15.116Z,98563.09
2019-03-05T07:08:58.361Z,98558.02
2019-03-05T07:11:38.996Z,98561.41
2019-03-05T07:14:10.550Z,98559.50
2019-03-05T07:16:53.965Z,98560.41
2019-03-05T07:19:24.792Z,98544.04
2019-03-05T07:22:26.504Z,98544.32
2019-03-05T07:24:54.885Z,98541.29
2019-03-05T07:27:27.449Z,98554.78
2019-03-05T07:29:58.714Z,98558.36
2019-03-05T07:32:28.407Z,98562.77
2019-03-05T07:34:56.987Z,98564.01
2019-03-05T07:37:25.337Z,98558.20
2019-03-05T07:39:53.734Z,98557.42
2019-03-05T07:42:22.093Z,98568.30
2019-03-05T07:44:50.563Z,98570.48
2019-03-05T07:47:19.000Z,98583.58
2019-03-05T07:49:47.412Z,98571.90
2019-03-05T07:52:15.773Z,98573.39
2019-03-05T07:54:44.230Z,98596.92
2019-03-05T07:57:12.648Z,98583.22
2019-03-05T07:59:41.104Z,98593.01
2019-03-05T08:02:09.918Z,98593.41
2019-03-05T08:04:38.372Z,98595.56
2019-03-05T08:07:06.801Z,98590.98
2019-03-05T08:09:38.961Z,98609.88
2019-03-05T08:12:22.484Z,98600.92
2019-03-05T08:15:00.762Z,98582.72
2019-03-05T08:17:29.255Z,98605.66
2019-03-05T08:19:57.780Z,98609.88
2019-03-05T08:22:26.294Z,98610.80
2019-03-05T08:24:54.829Z,98609.19
2019-03-05T08:27:23.493Z,98611.63
2019-03-05T08:29:52.169Z,98603.44
2019-03-05T08:32:20.595Z,98608.27
2019-03-05T08:34:49.120Z,98602.75
2019-03-05T08:37:17.459Z,98603.30
2019-03-05T08:39:45.903Z,98603.53
2019-03-05T08:42:14.316Z,98613.32
2019-03-05T08:44:50.403Z,98605.87
2019-03-05T08:47:12.910Z,98607.36
2019-03-05T08:49:41.260Z,98611.19
2019-03-05T08:52:09.660Z,98610.40
2019-03-05T08:54:38.082Z,98600.47
2019-03-05T08:57:06.486Z,98584.77
2019-03-05T08:59:34.875Z,98596.95
2019-03-05T09:02:03.323Z,98597.70
2019-03-05T09:04:31.693Z,98604.59
2019-03-05T09:07:00.213Z,98608.71
2019-03-05T09:09:28.563Z,98613.53
2019-03-05T09:11:57.026Z,98595.84
2019-03-05T09:14:25.386Z,98600.11
2019-03-05T09:16:53.832Z,98601.97
2019-03-05T09:19:22.482Z,98599.78
2019-03-05T09:21:51.449Z,98596.39
2019-03-05T09:24:19.791Z,98595.33
2019-03-05T09:26:51.611Z,98593.32
2019-03-05T09:29:18.394Z,98597.06
2019-03-05T09:31:46.774Z,98594.35
2019-03-05T09:34:17.528Z,98603.30
2019-03-05T09:36:50.823Z,98590.91
2019-03-05T09:39:17.036Z,98599.16
2019-03-05T09:41:45.533Z,98590.16
2019-03-05T09:44:14.034Z,98596.13
2019-03-05T09:46:42.520Z,98592.20
2019-03-05T09:49:11.026Z,98589.50
2019-03-05T09:51:39.492Z,98589.11
2019-03-05T09:54:07.922Z,98598.44
2019-03-05T09:56:36.755Z,98591.92
2019-03-05T09:59:05.723Z,98589.88
2019-03-05T10:01:34.260Z,98591.71
2019-03-05T10:04:02.678Z,98593.94
2019-03-05T10:06:31.161Z,98597.57
2019-03-05T10:08:59.570Z,98590.63
2019-03-05T10:11:28.041Z,98602.81
2019-03-05T10:13:56.476Z,98587.45
2019-03-05T10:16:25.001Z,98597.39
2019-03-05T10:18:53.551Z,98599.53
2019-03-05T10:21:22.642Z,98589.33
2019-03-05T10:23:51.168Z,98606.97
2019-03-05T10:26:19.671Z,98605.63
2019-03-05T10:28:48.303Z,98613.64
2019-03-05T10:31:18.744Z,98615.02
2019-03-05T10:33:46.935Z,98606.13
2019-03-05T10:36:15.472Z,98609.38
2019-03-05T10:38:43.950Z,98619.88
2019-03-05T10:41:12.370Z,98614.00
2019-03-05T10:43:40.820Z,98618.16
2019-03-05T10:46:09.258Z,98615.48
2019-03-05T10:48:37.786Z,98609.25
2019-03-05T10:51:06.217Z,98610.55
2019-03-05T10:53:34.676Z,98614.33
2019-03-05T10:56:03.168Z,98607.11
2019-03-05T10:58:34.206Z,98615.63
2019-03-05T11:01:02.033Z,98593.88
2019-03-05T11:03:30.871Z,98616.61
2019-03-05T11:05:59.730Z,98623.45
2019-03-05T11:08:28.777Z,98616.61
2019-03-05T11:10:57.894Z,98616.33
2019-03-05T11:13:26.375Z,98622.77
2019-03-05T11:16:00.664Z,98630.09
2019-03-05T11:18:30.120Z,98629.09
2019-03-05T11:20:58.730Z,98634.46
2019-03-05T11:23:27.140Z,98636.00
2019-03-05T11:25:55.748Z,98634.47
2019-03-05T11:28:24.212Z,98637.08
2019-03-05T11:30:52.698Z,98635.02
2019-03-05T11:33:21.394Z,98645.64
2019-03-05T11:35:49.910Z,98646.20
2019-03-05T11:38:18.466Z,98644.58
2019-03-05T11:40:46.919Z,98658.63
2019-03-05T11:43:17.116Z,98656.42
2019-03-05T11:45:45.909Z,98666.21
2019-03-05T11:48:15.139Z,98655.67
2019-03-05T11:50:46.002Z,98663.17
2019-03-05T11:53:14.460Z,98659.14
2019-03-05T11:55:42.891Z,98661.82
2019-03-05T11:58:11.342Z,98667.94
2019-03-05T12:00:50.297Z,98672.00
2019-03-05T12:03:19.438Z,98672.91
2019-03-05T12:05:48.655Z,98667.66
2019-03-05T12:08:17.374Z,98677.48
2019-03-05T12:10:46.430Z,98683.80
2019-03-05T12:13:15.355Z,98695.20
2019-03-05T12:15:45.317Z,98690.94
2019-03-05T12:18:15.697Z,98701.06
2019-03-05T12:20:44.382Z,98698.22
2019-03-05T12:23:13.171Z,98703.97
2019-03-05T12:25:42.105Z,98701.67
2019-03-05T12:28:11.379Z,98697.39
2019-03-05T12:30:40.139Z,98700.61
2019-03-05T12:33:08.767Z,98705.30
2019-03-05T12:35:37.473Z,98702.61
2019-03-05T12:38:07.389Z,98709.58
2019-03-05T12:40:35.838Z,98707.45
2019-03-05T12:43:04.899Z,98695.89
2019-03-05T12:45:33.893Z,98703.08
2019-03-05T12:48:02.390Z,98709.88
2019-03-05T12:50:33.178Z,98720.36
2019-03-05T12:53:01.598Z,98711.50
2019-03-05T12:55:30.425Z,98725.12
2019-03-05T12:57:59.948Z,98727.11
2019-03-05T13:00:33.829Z,98724.29
2019-03-05T13:03:02.417Z,98714.47
2019-03-05T13:05:30.994Z,98700.23
2019-03-05T13:08:00.319Z,98703.47
2019-03-05T13:10:35.911Z,98711.56
2019-03-05T13:13:04.493Z,98701.69
2019-03-05T13:15:37.949Z,98699.91
2019-03-05T13:18:06.767Z,98699.56
2019-03-05T13:20:35.223Z,98690.06
2019-03-05T13:23:08.515Z,98699.86
2019-03-05T13:25:33.959Z,98706.68
2019-03-05T13:28:04.139Z,98712.17
2019-03-05T13:30:33.259Z,98712.11
2019-03-05T13:33:01.751Z,98701.69
2019-03-05T13:35:31.927Z,98708.26
2019-03-05T13:38:19.623Z,98713.84
2019-03-05T13:40:48.521Z,98708.64
2019-03-05T13:43:17.459Z,98703.13
2019-03-05T13:45:49.409Z,98707.87
2019-03-05T13:48:34.858Z,98713.65
2019-03-05T13:51:40.629Z,98719.70
2019-03-05T13:54:16.749Z,98731.81
2019-03-05T13:57:22.254Z,98737.67
2019-03-05T13:59:50.771Z,98736.91
2019-03-05T14:02:22.504Z,98754.45
2019-03-05T14:05:01.737Z,98754.12
2019-03-05T14:07:53.115Z,98750.10
2019-03-05T14:10:25.180Z,98759.01
2019-03-05T14:12:54.872Z,98764.35
2019-03-05T14:15:23.960Z,98762.97
2019-03-05T14:17:53.097Z,98778.12
2019-03-05T14:20:31.565Z,98777.32
2019-03-05T14:22:54.214Z,98767.20
2019-03-05T14:25:26.737Z,98753.89
2019-03-05T14:27:55.556Z,98760.67
2019-03-05T14:30:25.994Z,98760.08
2019-03-05T14:32:56.572Z,98755.16
2019-03-05T14:35:27.291Z,98766.33
2019-03-05T14:37:57.321Z,98772.56
2019-03-05T14:40:28.003Z,98759.81
2019-03-05T14:42:57.213Z,98775.16
2019-03-05T14:45:27.897Z,98779.52
2019-03-05T14:47:58.811Z,98783.22
2019-03-05T14:50:30.304Z,98778.75
2019-03-05T14:53:04.161Z,98776.70
2019-03-05T14:55:35.067Z,98776.15
2019-03-05T14:58:05.254Z,98781.09
2019-03-05T15:00:35.295Z,98776.39
2019-03-05T15:03:05.583Z,98781.37
2019-03-05T15:05:36.171Z,98769.33
2019-03-05T15:08:05.528Z,98776.39
2019-03-05T15:10:40.129Z,98766.26
2019-03-05T15:13:16.180Z,98771.66
2019-03-05T15:15:42.422Z,98771.39
2019-03-05T15:18:14.314Z,98774.52
2019-03-05T15:20:42.967Z,98774.98
2019-03-05T15:23:14.374Z,98777.67
2019-03-05T15:25:44.852Z,98779.92
2019-03-05T15:28:15.026Z,98773.72
2019-03-05T15:30:43.799Z,98776.95
2019-03-05T15:33:12.698Z,98778.30
2019-03-05T15:35:41.717Z,98784.27
2019-03-05T15:38:11.077Z,98786.88
2019-03-05T15:40:39.921Z,98789.41
2019-03-05T15:43:08.552Z,98798.52
2019-03-05T15:45:38.211Z,98799.95
2019-03-05T15:48:07.936Z,98801.58
2019-03-05T15:50:38.371Z,98799.13
2019-03-05T15:53:06.833Z,98809.19
2019-03-05T15:55:37.613Z,98811.84
2019-03-05T15:58:08.331Z,98812.31
2019-03-05T16:00:39.040Z,98804.10
2019-03-05T16:03:12.882Z,98797.71
2019-03-05T16:05:46.850Z,98797.34
2019-03-05T16:08:20.893Z,98804.30
2019-03-05T16:10:54.711Z,98800.59
2019-03-05T16:13:22.036Z,98802.52
2019-03-05T16:15:50.801Z,98807.98
2019-03-05T16:18:19.922Z,98812.28
2019-03-05T16:20:48.913Z,98816.30
2019-03-05T16:23:18.382Z,98816.15
2019-03-05T16:25:50.382Z,98825.84
2019-03-05T16:28:21.387Z,98817.73
2019-03-05T16:30:53.240Z,98823.83
2019-03-05T16:33:32.376Z,98821.25
2019-03-05T16:36:04.259Z,98822.92
2019-03-05T16:38:46.498Z,98822.24
2019-03-05T16:41:20.530Z,98828.68
2019-03-05T16:44:04.445Z,98830.84
2019-03-05T16:46:50.704Z,98826.31
2019-03-05T16:49:36.755Z,98825.63
2019-03-05T16:52:12.823Z,98832.47
2019-03-05T16:54:46.514Z,98839.19
2019-03-05T16:57:20.104Z,98834.31
2019-03-05T16:59:53.751Z,98831.19
2019-03-05T17:02:35.957Z,98839.01
2019-03-05T17:05:23.793Z,98851.57
2019-03-05T17:07:57.125Z,98850.55
2019-03-05T17:10:46.280Z,98852.30
2019-03-05T17:13:15.071Z,98856.48
2019-03-05T17:15:43.934Z,98858.71
2019-03-05T17:18:12.748Z,98861.08
2019-03-05T17:20:41.541Z,98856.10
2019-03-05T17:23:10.498Z,98858.56
2019-03-05T17:25:42.333Z,98868.64
2019-03-05T17:28:11.140Z,98864.44
2019-03-05T17:30:40.216Z,98872.18
2019-03-05T17:33:08.728Z,98878.41
2019-03-05T17:35:37.185Z,98880.34
2019-03-05T17:38:06.196Z,98883.38
2019-03-05T17:40:34.646Z,98884.38
2019-03-05T17:43:03.071Z,98880.79
2019-03-05T17:45:31.530Z,98888.95
2019-03-05T17:47:59.884Z,98888.87
2019-03-05T17:50:28.261Z,98891.42
2019-03-05T17:52:56.718Z,98897.18
2019-03-05T17:55:27.330Z,98902.23
2019-03-05T17:57:55.758Z,98899.56
2019-03-05T18:00:28.505Z,98902.69
2019-03-05T18:02:56.995Z,98906.69
2019-03-05T18:05:25.447Z,98914.89
2019-03-05T18:07:53.879Z,98914.19
2019-03-05T18:10:22.703Z,98914.88
2019-03-05T18:12:51.125Z,98914.81
2019-03-05T18:15:19.589Z,98923.10
2019-03-05T18:17:48.015Z,98921.64
2019-03-05T18:20:18.945Z,98926.09
2019-03-05T18:22:47.749Z,98923.48
2019-03-05T18:25:16.943Z,98926.45
2019-03-05T18:27:46.058Z,98927.39
2019-03-05T18:30:20.281Z,98933.13
2019-03-05T18:32:48.724Z,98947.70
2019-03-05T18:35:17.339Z,98942.40
2019-03-05T18:37:45.780Z,98938.34
2019-03-05T18:40:19.119Z,98942.72
2019-03-05T18:42:47.671Z,98939.73
2019-03-05T18:45:30.437Z,98931.14
2019-03-05T18:47:59.376Z,98939.20
2019-03-05T18:50:28.372Z,98936.58
2019-03-05T18:52:58.572Z,98934.59
2019-03-05T18:55:27.264Z,98933.89
2019-03-05T18:57:56.252Z,98938.97
2019-03-05T19:00:27.189Z,98938.12
2019-03-05T19:02:58.281Z,98935.34
2019-03-05T19:05:27.351Z,98942.88
2019-03-05T19:08:00.034Z,98935.06
2019-03-05T19:10:28.662Z,98931.70
2019-03-05T19:12:57.548Z,98939.88
2019-03-05T19:15:27.135Z,98941.50
2019-03-05T19:17:55.662Z,98940.72
2019-03-05T19:20:31.900Z,98940.55
2019-03-05T19:23:00.400Z,98943.72
2019-03-05T19:25:30.293Z,98940.03
2019-03-05T19:27:58.819Z,98941.25
2019-03-05T19:30:33.776Z,98946.03
2019-03-05T19:33:02.649Z,98943.34
2019-03-05T19:35:31.149Z,98937.42
2019-03-05T19:37:59.534Z,98940.56
2019-03-05T19:40:33.616Z,98939.20
2019-03-05T19:43:02.006Z,98945.56
2019-03-05T19:45:30.530Z,98943.47
2019-03-05T19:47:58.970Z,98949.08
2019-03-05T19:50:27.800Z,98941.72
2019-03-05T19:52:56.839Z,98945.16
2019-03-05T19:55:31.829Z,98937.28
2019-03-05T19:58:11.163Z,98935.06
2019-03-05T20:00:58.434Z,98941.44
2019-03-05T20:03:26.966Z,98946.03
2019-03-05T20:05:55.385Z,98942.42
2019-03-05T20:08:23.838Z,98941.33
2019-03-05T20:10:52.431Z,98947.63
2019-03-05T20:13:21.228Z,98942.42
2019-03-05T20:15:49.865Z,98940.97
2019-03-05T20:18:18.330Z,98946.18
2019-03-05T20:20:46.765Z,98938.82
2019-03-05T20:23:15.230Z,98938.65
2019-03-05T20:25:43.659Z,98942.58
2019-03-05T20:28:12.180Z,98942.87
2019-03-05T20:30:40.598Z,98935.52
2019-03-05T20:33:09.057Z,98936.76
2019-03-05T20:35:37.524Z,98936.97
2019-03-05T20:38:06.149Z,98932.74
2019-03-05T20:40:34.622Z,98924.92
2019-03-05T20:43:04.199Z,98931.44
2019-03-05T20:45:44.984Z,98928.14
2019-03-05T20:48:13.860Z,98933.61
2019-03-05T20:50:42.386Z,98936.12
2019-03-05T20:53:10.825Z,98937.20
2019-03-05T20:55:39.432Z,98936.50
2019-03-05T20:58:07.930Z,98949.16
2019-03-05T21:00:37.870Z,98943.04
2019-03-05T21:03:10.421Z,98946.23
2019-03-05T21:05:44.151Z,98933.68
2019-03-05T21:08:12.734Z,98935.22
2019-03-05T21:10:41.196Z,98923.79
2019-03-05T21:13:11.463Z,98936.28
2019-03-05T21:15:40.154Z,98926.45
2019-03-05T21:18:11.675Z,98931.91
2019-03-05T21:20:40.406Z,98921.56
2019-03-05T21:23:08.898Z,98924.98
2019-03-05T21:25:37.282Z,98924.91
2019-03-05T21:28:05.871Z,98929.58
2019-03-05T21:30:34.376Z,98933.41
2019-03-05T21:33:02.962Z,98931.42
2019-03-05T21:35:31.491Z,98925.84
2019-03-05T21:37:59.843Z,98931.50
2019-03-05T21:40:31.383Z,98931.88
2019-03-05T21:42:59.885Z,98926.30
2019-03-05T21:45:34.035Z,98928.83
2019-03-05T21:48:02.709Z,98930.81
2019-03-05T21:50:31.073Z,98930.02
2019-03-05T21:52:59.416Z,98926.45
2019-03-05T21:55:28.719Z,98928.51
2019-03-05T21:57:59.236Z,98926.45
2019-03-05T22:00:32.965Z,98926.52
2019-03-05T22:03:02.618Z,98934.03
2019-03-05T22:05:31.923Z,98928.53
2019-03-05T22:08:01.241Z,98926.13
2019-03-05T22:10:33.717Z,98929.76
2019-03-05T22:13:03.099Z,98934.35
2019-03-05T22:15:33.143Z,98929.06
2019-03-05T22:18:02.849Z,98933.33
2019-03-05T22:20:33.194Z,98931.27
2019-03-05T22:23:03.282Z,98930.98
2019-03-05T22:25:31.962Z,98926.97
2019-03-05T22:28:00.867Z,98923.00
2019-03-05T22:30:31.933Z,98916.41
2019-03-05T22:33:00.915Z,98913.64
2019-03-05T22:35:29.641Z,98911.66
2019-03-05T22:37:58.285Z,98910.20
2019-03-05T22:40:28.340Z,98908.37
2019-03-05T22:42:57.126Z,98908.96
2019-03-05T22:45:30.241Z,98908.37
2019-03-05T22:47:58.721Z,98909.20
2019-03-05T22:50:28.396Z,98903.16
2019-03-05T22:52:57.131Z,98910.50
2019-03-05T22:55:26.520Z,98912.02
2019-03-05T22:57:55.423Z,98902.73
2019-03-05T23:00:38.453Z,98910.56
2019-03-05T23:03:09.428Z,98911.78
2019-03-05T23:05:38.908Z,98903.05
2019-03-05T23:08:11.675Z,98909.34
2019-03-05T23:10:42.589Z,98903.13
2019-03-05T23:13:13.150Z,98897.14
2019-03-05T23:15:41.573Z,98898.48
2019-03-05T23:18:12.466Z,98890.53
2019-03-05T23:20:40.963Z,98883.26
2019-03-05T23:23:09.424Z,98883.78
2019-03-05T23:25:37.926Z,98882.47
2019-03-05T23:28:07.293Z,98870.81
2019-03-05T23:30:35.722Z,98869.06
2019-03-05T23:33:04.369Z,98880.29
2019-03-05T23:35:32.895Z,98877.98
2019-03-05T23:38:01.346Z,98876.48
2019-03-05T23:40:29.699Z,98877.77
2019-03-05T23:42:58.239Z,98878.47
2019-03-05T23:45:26.741Z,98870.44
2019-03-05T23:47:55.135Z,98872.89
2019-03-05T23:50:23.560Z,98868.14
2019-03-05T23:52:52.122Z,98862.55
2019-03-05T23:55:20.553Z,98855.00
2019-03-05T23:57:49.050Z,98853.88
